Time;durP1;ratioP1;P1;durP2;ratioP2;P2;SDS_P1;SDS_P2;PMS_P1;PMS_P2;Temp;Humidity;BMP_temperature;BMP_pressure;BME280_temperature;BME280_humidity;BME280_pressure;Samples;Min_cycle;Max_cycle;Signal;HPM_P1;HPM_P2
2023/04/10 00:00:29;;;;;;;6.73;6.13;;;;;;;10.00;75.26;99591.66;5105763;28;20194;-49
2023/04/10 00:06:42;;;;;;;6.47;5.87;;;;;;;9.92;74.33;99576.28;5104075;28;20195;-49
2023/04/10 00:15:49;;;;;;;;;;;;;;;;;;;;;
2023/04/10 00:18:57;;;;;;;10.93;7.63;;;;;;;9.62;75.59;99548.53;5104038;28;20198;-49
2023/04/10 00:34:19;;;;;;;9.23;7.00;;;;;;;9.52;76.11;99565.19;5102345;28;20191;-50
2023/04/10 00:37:32;;;;;;;8.80;7.43;;;;;;;9.49;76.06;99550.56;5108715;28;20201;-50
2023/04/10 00:49:55;;;;;;;9.03;6.17;;;;;;;9.30;76.69;99533.75;5110295;28;20282;-48
2023/04/10 00:52:34;;;;;;;7.00;6.30;;;;;;;9.43;76.37;99530.84;5110787;28;20283;-47
2023/04/10 01:01:49;;;;;;;8.70;6.37;;;;;;;9.27;77.09;99521.72;5108503;28;20203;-48
2023/04/10 01:04:32;;;;;;;8.47;6.70;;;;;;;9.25;77.00;99515.75;5109514;28;20278;-47
2023/04/10 01:07:32;;;;;;;10.70;7.90;;;;;;;9.18;77.61;99502.94;5108371;28;20666;-51
2023/04/10 01:10:48;;;;;;;7.67;6.80;;;;;;;9.25;78.09;99512.31;5106932;28;20179;-50
2023/04/10 01:13:50;;;;;;;9.33;7.33;;;;;;;9.28;77.98;99515.66;5109659;28;20195;-49
2023/04/10 01:20:12;;;;;;;10.33;7.10;;;;;;;9.24;78.36;99523.53;5106852;28;20205;-49
2023/04/10 01:23:23;;;;;;;9.80;7.30;;;;;;;9.24;79.70;99520.97;5109574;28;20683;-51
2023/04/10 01:36:16;;;;;;;10.10;6.67;;;;;;;9.25;79.73;99523.50;5099494;28;20234;-48
2023/04/10 01:39:10;;;;;;;7.17;6.47;;;;;;;9.25;78.51;99525.25;5109441;28;20199;-50
2023/04/10 01:45:19;;;;;;;7.77;6.60;;;;;;;9.21;79.53;99541.72;5106680;28;20202;-49
2023/04/10 01:48:21;;;;;;;7.03;6.20;;;;;;;9.14;79.41;99525.50;5110255;28;20229;-48
2023/04/10 01:57:27;;;;;;;10.07;7.07;;;;;;;8.96;81.10;99534.50;5108684;28;20207;-51
2023/04/10 02:03:29;;;;;;;7.97;7.17;;;;;;;9.07;81.40;99529.09;5109159;28;20221;-49
2023/04/10 02:12:27;;;;;;;8.87;7.50;;;;;;;9.05;82.17;99533.44;5108563;28;20187;-48
2023/04/10 02:21:19;;;;;;;7.63;6.83;;;;;;;8.93;83.47;99520.78;5106565;28;20209;-49
2023/04/10 02:24:29;;;;;;;9.53;7.90;;;;;;;8.91;84.71;99525.16;5109574;28;20283;-49
2023/04/10 02:27:21;;;;;;;11.43;8.03;;;;;;;8.92;84.02;99519.06;5107817;28;20583;-50
2023/04/10 02:30:18;;;;;;;10.60;8.57;;;;;;;8.97;84.52;99520.69;5109492;28;20203;-50
2023/04/10 02:33:19;;;;;;;10.17;8.60;;;;;;;8.93;84.89;99516.44;5109169;28;20199;-50
2023/04/10 02:36:17;;;;;;;12.20;9.27;;;;;;;9.05;84.30;99516.19;5106172;28;20210;-49
2023/04/10 02:42:12;;;;;;;8.90;7.70;;;;;;;9.15;84.38;99505.59;5106468;28;20213;-49
2023/04/10 02:45:17;;;;;;;8.33;7.10;;;;;;;9.22;83.42;99497.69;5107110;28;20191;-49
2023/04/10 02:48:18;;;;;;;9.70;8.50;;;;;;;9.21;83.69;99501.16;5107744;28;20582;-49
2023/04/10 02:51:12;;;;;;;19.40;8.33;;;;;;;9.25;84.20;99494.19;5108706;28;20191;-48
2023/04/10 02:57:25;;;;;;;12.13;8.83;;;;;;;9.21;85.53;99495.97;5102919;28;20221;-48
2023/04/10 03:00:07;;;;;;;13.23;9.47;;;;;;;9.34;85.86;99502.56;5106584;28;20645;-49
2023/04/10 03:02:46;;;;;;;12.63;9.17;;;;;;;9.30;87.07;99494.91;5106777;28;20202;-49
2023/04/10 03:05:48;;;;;;;14.20;9.97;;;;;;;9.29;87.29;99498.38;5106688;28;20260;-50
2023/04/10 03:08:38;;;;;;;13.10;10.27;;;;;;;9.25;87.56;99500.22;5107047;28;20194;-49
2023/04/10 03:11:15;;;;;;;11.10;9.83;;;;;;;9.26;88.05;99496.69;5108214;28;20197;-48
2023/04/10 03:14:15;;;;;;;14.57;10.40;;;;;;;9.22;88.77;99496.81;5108817;28;20201;-51
2023/04/10 03:16:59;;;;;;;13.00;10.10;;;;;;;9.19;89.12;99496.88;5067265;28;20215;-50
2023/04/10 03:19:48;;;;;;;12.77;10.07;;;;;;;9.20;88.22;99496.00;5067479;28;20689;-49
2023/04/10 03:22:26;;;;;;;13.23;10.17;;;;;;;9.17;88.58;99494.34;5066559;28;20636;-48
2023/04/10 03:25:01;;;;;;;12.20;9.73;;;;;;;9.10;88.10;99495.38;5066605;28;20234;-49
2023/04/10 03:27:33;;;;;;;14.63;10.03;;;;;;;9.07;88.58;99490.25;5068582;28;20188;-50
2023/04/10 03:30:08;;;;;;;11.73;9.47;;;;;;;9.17;87.32;99490.88;5068136;28;20214;-49
2023/04/10 03:32:56;;;;;;;12.13;9.83;;;;;;;9.05;87.50;99486.84;5065444;28;20638;-50
2023/04/10 03:35:32;;;;;;;14.73;9.53;;;;;;;9.06;86.78;99497.16;5066419;28;20194;-50
2023/04/10 03:38:15;;;;;;;12.40;9.53;;;;;;;9.11;85.92;99497.09;5067168;28;20191;-49
2023/04/10 03:41:05;;;;;;;12.83;9.57;;;;;;;9.14;85.98;99496.16;5066784;28;20196;-50
2023/04/10 03:44:03;;;;;;;13.47;9.90;;;;;;;9.10;86.05;99496.22;5067513;28;20208;-49
2023/04/10 03:46:59;;;;;;;13.30;9.60;;;;;;;9.05;86.17;99492.88;5065522;28;20682;-49
2023/04/10 03:49:46;;;;;;;9.90;8.90;;;;;;;9.09;85.80;99498.84;5068006;28;20204;-48
2023/04/10 03:52:48;;;;;;;12.87;9.50;;;;;;;9.08;85.70;99497.13;5068180;28;20740;-48
2023/04/10 03:55:35;;;;;;;15.37;10.00;;;;;;;9.07;84.97;99504.06;5068490;28;20199;-48
2023/04/10 03:58:08;;;;;;;14.23;9.87;;;;;;;9.06;85.45;99498.91;5058937;28;20219;-49
2023/04/10 04:00:45;;;;;;;14.70;9.83;;;;;;;9.07;85.17;99504.06;5051670;28;20323;-50
2023/04/10 04:03:23;;;;;;;13.00;9.13;;;;;;;9.17;85.20;99501.25;5051002;28;20302;-48
2023/04/10 04:05:55;;;;;;;16.43;9.77;;;;;;;9.28;84.20;99504.44;5052108;28;20739;-48
2023/04/10 04:08:52;;;;;;;12.97;9.13;;;;;;;9.22;83.89;99497.69;5051142;28;20228;-48
2023/04/10 04:14:28;;;;;;;12.50;9.57;;;;;;;9.46;82.78;99504.88;5071555;28;20239;-48
2023/04/10 04:20:21;;;;;;;14.37;9.77;;;;;;;9.86;81.34;99514.22;5105753;28;20198;-48
2023/04/10 04:23:10;;;;;;;15.07;9.93;;;;;;;10.09;80.44;99514.47;5109646;28;20578;-49
2023/04/10 04:29:25;;;;;;;14.00;9.57;;;;;;;10.42;78.32;99514.47;5106747;28;20653;-51
2023/04/10 04:32:25;;;;;;;11.17;9.17;;;;;;;10.51;78.41;99520.22;5110467;28;20203;-49
2023/04/10 04:42:14;;;;;;;18.27;11.57;;;;;;;10.55;78.74;99510.63;5110307;28;20237;-49
2023/04/10 04:45:03;;;;;;;33.43;12.63;;;;;;;10.54;79.36;99509.78;5112877;28;20194;-49
2023/04/10 04:51:04;;;;;;;22.13;12.40;;;;;;;10.44;79.64;99510.94;5111227;28;20206;-48
2023/04/10 04:54:09;;;;;;;19.60;12.30;;;;;;;10.40;79.85;99514.50;5112841;28;20199;-49
2023/04/10 04:56:56;;;;;;;14.47;11.67;;;;;;;10.39;80.04;99519.72;5109374;28;20230;-49
2023/04/10 04:59:37;;;;;;;20.53;12.23;;;;;;;10.39;80.06;99520.56;5095129;28;20233;-49
2023/04/10 05:02:13;;;;;;;19.90;12.17;;;;;;;10.42;80.35;99523.09;5112490;28;20194;-50
2023/04/10 05:04:50;;;;;;;18.67;12.40;;;;;;;10.36;80.53;99517.25;5112046;28;20232;-48
2023/04/10 05:07:41;;;;;;;18.00;13.20;;;;;;;10.37;80.80;99511.16;5112187;28;20194;-50
2023/04/10 05:10:26;;;;;;;20.73;12.83;;;;;;;10.31;81.32;99513.91;5110023;28;20234;-49
2023/04/10 05:13:07;;;;;;;21.07;12.63;;;;;;;10.18;81.40;99522.03;5109517;28;20206;-47
2023/04/10 05:15:52;;;;;;;16.43;11.17;;;;;;;10.25;81.04;99521.88;5111769;28;20317;-51
2023/04/10 05:18:43;;;;;;;29.00;19.40;;;;;;;10.25;81.14;99514.09;5112415;28;20642;-49
2023/04/10 05:21:37;;;;;;;15.63;13.60;;;;;;;10.27;81.59;99527.88;5110464;28;20786;-49
2023/04/10 05:27:40;;;;;;;17.80;11.03;;;;;;;10.41;80.80;99529.16;5109585;28;20190;-52
2023/04/10 05:30:23;;;;;;;21.13;11.10;;;;;;;10.57;80.00;99534.78;5108425;28;20226;-52
2023/04/10 05:33:36;;;;;;;20.73;10.93;;;;;;;10.66;79.26;99534.53;5111877;28;20649;-50
2023/04/10 05:36:14;;;;;;;14.20;10.40;;;;;;;10.79;78.41;99541.06;5111934;28;20252;-50
2023/04/10 05:42:14;;;;;;;14.57;9.93;;;;;;;10.99;78.58;99547.41;5110202;28;20199;-50
2023/04/10 05:45:27;;;;;;;17.83;11.73;;;;;;;11.22;77.46;99545.81;5112023;28;20643;-48
2023/04/10 05:48:24;;;;;;;;;;;;;;;;;;;;;
2023/04/10 05:51:29;;;;;;;17.93;10.90;;;;;;;13.43;70.62;99538.03;5105941;28;20206;-49
2023/04/10 05:54:26;;;;;;;14.23;9.80;;;;;;;14.47;65.77;99551.00;5109171;28;20198;-49
2023/04/10 05:57:09;;;;;;;16.63;11.13;;;;;;;15.89;62.30;99555.69;5109062;28;20211;-48
2023/04/10 06:00:30;;;;;;;16.83;9.93;;;;;;;16.59;58.51;99549.41;5109237;28;20247;-50
2023/04/10 06:03:13;;;;;;;13.87;9.20;;;;;;;16.06;59.13;99553.97;5109357;28;20205;-48
2023/04/10 06:06:06;;;;;;;9.57;8.57;;;;;;;15.67;59.86;99555.03;5110070;28;20674;-49
2023/04/10 06:12:02;;;;;;;8.07;7.27;;;;;;;15.83;58.69;99555.97;5110387;28;20642;-48
2023/04/10 06:17:41;;;;;;;6.60;6.00;;;;;;;17.36;54.18;99551.41;5107475;28;20251;-50
2023/04/10 06:20:35;;;;;;;7.33;6.63;;;;;;;17.60;53.47;99557.03;5104948;28;20221;-49
2023/04/10 06:23:18;;;;;;;7.90;7.10;;;;;;;18.01;51.83;99552.91;5105942;28;20209;-50
2023/04/10 06:26:02;;;;;;;7.95;7.05;;;;;;;17.63;52.16;99562.13;5106827;28;20190;-48
2023/04/10 06:29:05;;;;;;;7.28;6.57;;;;;;;17.65;51.92;99557.63;5107680;28;20626;-49
2023/04/10 06:32:18;;;;;;;9.20;7.18;;;;;;;17.88;51.70;99557.16;5107651;28;20633;-49
2023/04/10 06:38:43;;;;;;;7.53;6.80;;;;;;;19.44;47.28;99565.09;5107724;28;20697;-49
2023/04/10 06:48:05;;;;;;;6.65;6.15;;;;;;;20.90;43.65;99559.66;5093197;28;20187;-49
2023/04/10 06:50:43;;;;;;;6.72;6.18;;;;;;;22.41;39.79;99565.25;5106246;28;20262;-50
2023/04/10 06:53:22;;;;;;;6.45;5.97;;;;;;;23.28;37.33;99571.66;5106545;28;20731;-51
2023/04/10 06:56:02;;;;;;;6.45;5.75;;;;;;;24.10;35.90;99578.16;5104720;28;20195;-49
2023/04/10 06:58:47;;;;;;;6.70;6.20;;;;;;;24.94;33.38;99553.28;5106452;28;20701;-50
2023/04/10 07:01:22;;;;;;;6.00;5.60;;;;;;;26.02;31.12;99578.94;5107201;28;20205;-49
2023/04/10 07:04:02;;;;;;;6.07;5.50;;;;;;;26.84;28.98;99572.22;5106565;28;20630;-49
2023/04/10 07:06:48;;;;;;;6.05;5.65;;;;;;;26.64;28.91;99564.25;5105891;28;20214;-51
2023/04/10 07:09:37;;;;;;;5.93;5.53;;;;;;;27.01;27.82;99577.63;5102727;28;20224;-50
2023/04/10 07:12:20;;;;;;;5.75;5.35;;;;;;;27.06;27.26;99575.38;5106091;28;20547;-51
2023/04/10 07:14:58;;;;;;;6.32;5.72;;;;;;;27.06;27.68;99569.19;5105406;28;20230;-50
2023/04/10 07:17:38;;;;;;;5.95;5.55;;;;;;;25.21;29.52;99572.09;5107405;28;20526;-51
2023/04/10 07:20:23;;;;;;;6.50;5.90;;;;;;;24.83;30.47;99574.59;5105575;28;20218;-51
2023/04/10 07:23:12;;;;;;;7.60;6.53;;;;;;;24.91;30.73;99569.44;5107090;28;20198;-51
2023/04/10 07:25:50;;;;;;;6.75;6.25;;;;;;;24.71;30.86;99567.69;5107165;28;20255;-50
2023/04/10 07:28:39;;;;;;;9.60;8.90;;;;;;;23.29;32.02;99570.69;5107132;28;20194;-51
2023/04/10 07:31:19;;;;;;;20.70;18.08;;;;;;;21.90;34.74;99562.91;5106044;28;20218;-49
2023/04/10 07:34:07;;;;;;;7.90;7.40;;;;;;;21.19;35.66;99566.41;5105771;28;20195;-48
2023/04/10 07:37:10;;;;;;;7.45;6.88;;;;;;;21.50;35.36;99561.53;5107464;28;20698;-48
2023/04/10 07:39:59;;;;;;;14.07;11.45;;;;;;;21.10;35.74;99556.47;5103219;28;20214;-49
2023/04/10 07:42:57;;;;;;;12.95;10.43;;;;;;;20.57;36.25;99558.44;5105345;28;20187;-49
2023/04/10 07:45:35;;;;;;;5.60;5.30;;;;;;;20.22;36.55;99558.16;5105985;28;20670;-49
2023/04/10 07:48:13;;;;;;;5.55;5.15;;;;;;;20.00;36.21;99551.81;5107879;28;20195;-50
2023/04/10 07:50:47;;;;;;;5.38;5.03;;;;;;;20.51;35.99;99521.09;5102501;28;20652;-50
2023/04/10 07:53:28;;;;;;;5.68;5.28;;;;;;;21.69;33.91;99549.50;5107827;28;20649;-49
2023/04/10 07:56:21;;;;;;;5.97;5.47;;;;;;;20.92;34.78;99545.41;5108392;28;20190;-49
2023/04/10 07:59:21;;;;;;;5.82;5.28;;;;;;;20.79;35.20;99547.22;5106268;28;20582;-49
2023/04/10 08:01:56;;;;;;;5.43;5.03;;;;;;;20.55;35.50;99548.94;5108473;28;20190;-49
2023/04/10 08:04:31;;;;;;;4.97;4.63;;;;;;;20.18;36.10;99542.69;5107976;28;20549;-50
2023/04/10 08:07:13;;;;;;;4.65;4.35;;;;;;;19.86;36.47;99527.22;5108439;28;20198;-47
2023/04/10 08:09:50;;;;;;;5.18;4.47;;;;;;;19.94;36.58;99537.28;5102402;28;20206;-49
2023/04/10 08:13:04;;;;;;;4.68;4.28;;;;;;;20.05;36.48;99528.66;5108250;28;20199;-48
2023/04/10 08:16:09;;;;;;;4.63;4.32;;;;;;;21.33;34.59;99526.63;5108372;28;20231;-50
2023/04/10 08:19:12;;;;;;;13.57;11.80;;;;;;;22.26;33.00;99526.75;5108177;28;20206;-50
2023/04/10 08:25:19;;;;;;;4.78;4.32;;;;;;;18.96;37.81;99531.41;5107635;28;20217;-50
2023/04/10 08:28:18;;;;;;;4.75;4.32;;;;;;;18.27;38.68;99522.47;5108870;28;20197;-47
2023/04/10 08:34:11;;;;;;;4.07;3.80;;;;;;;17.09;42.42;99511.78;5108285;28;20215;-49
2023/04/10 08:37:15;;;;;;;4.63;3.60;;;;;;;17.03;42.22;99515.63;5108747;28;20198;-49
2023/04/10 08:40:23;;;;;;;3.67;3.37;;;;;;;16.54;42.92;99512.13;5109367;28;20210;-51
2023/04/10 08:46:32;;;;;;;3.50;3.30;;;;;;;15.76;44.16;99510.09;5110471;28;20226;-49
2023/04/10 08:49:46;;;;;;;4.67;4.00;;;;;;;15.55;44.31;99505.94;5110585;28;20194;-50
2023/04/10 08:55:59;;;;;;;3.10;2.90;;;;;;;15.53;45.03;99500.72;5110601;28;20202;-50
2023/04/10 08:58:30;;;;;;;3.23;2.93;;;;;;;15.34;45.76;99496.47;5112737;28;20602;-49
2023/04/10 09:00:57;;;;;;;5.43;4.10;;;;;;;15.34;46.23;99499.09;5112561;28;20297;-48
2023/04/10 09:04:20;;;;;;;3.63;3.33;;;;;;;15.31;46.41;99501.84;5112442;28;20198;-48
2023/04/10 09:07:06;;;;;;;4.70;3.03;;;;;;;15.15;45.89;99489.50;5112325;28;20240;-47
2023/04/10 09:09:48;;;;;;;4.67;3.73;;;;;;;15.13;45.69;99487.88;5112460;28;20582;-48
2023/04/10 09:12:54;;;;;;;3.63;3.33;;;;;;;15.04;46.36;99486.56;5111990;28;20281;-47
2023/04/10 09:15:58;;;;;;;3.13;2.93;;;;;;;15.04;46.29;99475.25;5109940;28;20230;-48
2023/04/10 09:22:29;;;;;;;2.80;2.60;;;;;;;14.83;46.43;99471.88;5107074;28;20660;-49
2023/04/10 09:38:56;;;;;;;4.37;3.93;;;;;;;14.65;49.09;99467.53;5108470;28;20222;-48
2023/04/10 09:42:10;;;;;;;6.83;3.67;;;;;;;14.64;48.57;99465.84;5111526;28;20209;-48
2023/04/10 09:45:05;;;;;;;6.47;4.43;;;;;;;14.73;48.75;99470.63;5110969;28;20651;-49
2023/04/10 09:48:15;;;;;;;5.00;4.50;;;;;;;14.77;48.97;99466.97;5112070;28;20327;-53
2023/04/10 09:51:09;;;;;;;4.00;3.50;;;;;;;14.71;48.91;99469.84;5104003;28;20191;-48
2023/04/10 09:54:26;;;;;;;5.40;4.00;;;;;;;14.55;50.35;99467.09;5109206;28;20210;-48
2023/04/10 09:59:56;;;;;;;8.30;4.60;;;;;;;14.53;51.86;99468.94;5106165;28;20647;-51
2023/04/10 10:02:58;;;;;;;7.90;4.10;;;;;;;14.45;51.34;99461.44;5104131;28;20655;-51
2023/04/10 10:08:54;;;;;;;5.33;4.07;;;;;;;14.42;51.86;99458.13;5106310;28;20194;-49
2023/04/10 10:14:51;;;;;;;4.60;4.20;;;;;;;14.45;51.60;99466.66;5105288;28;20202;-46
2023/04/10 10:17:34;;;;;;;4.27;3.80;;;;;;;14.37;52.90;99455.69;5106535;28;20206;-48
2023/04/10 10:20:27;;;;;;;4.93;4.40;;;;;;;14.44;53.47;99458.91;5108360;28;20184;-51
2023/04/10 10:23:02;;;;;;;5.07;4.67;;;;;;;14.48;54.13;99460.44;5107443;28;20281;-48
2023/04/10 10:26:11;;;;;;;6.33;4.10;;;;;;;14.51;54.59;99455.94;5108602;28;20194;-49
2023/04/10 10:28:55;;;;;;;5.20;4.67;;;;;;;14.52;55.85;99454.19;5105041;28;20199;-50
2023/04/10 10:31:35;;;;;;;6.83;4.50;;;;;;;14.31;57.49;99458.59;5106521;28;20587;-49
2023/04/10 10:34:16;;;;;;;4.47;4.07;;;;;;;14.10;58.48;99454.31;5106675;28;20233;-49
2023/04/10 10:36:59;;;;;;;5.27;4.70;;;;;;;13.91;60.03;99453.41;5106902;28;20205;-49
2023/04/10 10:39:48;;;;;;;5.93;4.20;;;;;;;13.65;61.68;99447.56;5106961;28;20210;-50
2023/04/10 10:42:32;;;;;;;6.50;4.80;;;;;;;13.59;63.85;99441.75;5107475;28;20663;-48
2023/04/10 10:45:11;;;;;;;5.37;4.97;;;;;;;13.63;63.63;99444.16;5107477;28;20627;-48
2023/04/10 10:47:48;;;;;;;7.20;4.90;;;;;;;13.72;64.75;99437.72;5107418;28;20277;-48
2023/04/10 10:50:22;;;;;;;7.43;4.80;;;;;;;13.84;62.13;99436.34;5106797;28;20289;-47
2023/04/10 10:53:00;;;;;;;5.87;4.83;;;;;;;13.90;61.26;99436.91;5107103;28;20247;-50
2023/04/10 11:02:39;;;;;;;7.73;4.70;;;;;;;14.06;59.10;99434.47;5108754;28;20209;-49
2023/04/10 11:09:02;;;;;;;7.37;5.37;;;;;;;14.42;56.61;99421.56;5104272;28;20269;-50
2023/04/10 11:18:19;;;;;;;5.23;4.80;;;;;;;14.23;56.46;99429.34;5105181;28;20279;-49
2023/04/10 11:24:32;;;;;;;5.63;3.77;;;;;;;14.10;56.62;99423.00;5104203;28;20209;-49
2023/04/10 11:27:09;;;;;;;4.50;4.10;;;;;;;13.95;57.16;99418.44;5107536;28;20644;-48
2023/04/10 11:30:04;;;;;;;6.70;4.10;;;;;;;13.97;57.07;99437.50;5107953;28;20198;-49
2023/04/10 11:33:03;;;;;;;8.67;4.67;;;;;;;14.03;56.73;99430.22;5106790;28;20225;-49
2023/04/10 11:36:03;;;;;;;6.37;4.67;;;;;;;14.25;56.28;99435.34;5106698;28;20202;-50
2023/04/10 11:39:02;;;;;;;5.37;4.87;;;;;;;14.30;56.21;99428.16;5106377;28;20335;-49
2023/04/10 11:42:04;;;;;;;6.90;4.10;;;;;;;14.14;56.37;99432.38;5106343;28;20234;-50
2023/04/10 11:45:04;;;;;;;4.20;3.80;;;;;;;14.17;57.16;99435.69;5103925;28;20692;-49
2023/04/10 11:48:04;;;;;;;4.13;3.80;;;;;;;14.13;56.76;99433.28;5106762;28;20203;-49
2023/04/10 11:51:00;;;;;;;4.60;4.20;;;;;;;14.03;57.58;99434.59;5104175;28;20206;-49
2023/04/10 11:54:02;;;;;;;6.10;4.27;;;;;;;13.93;59.78;99428.09;5106027;28;20195;-49
2023/04/10 11:57:11;;;;;;;5.30;4.87;;;;;;;13.84;60.40;99412.84;5106161;28;20198;-49
2023/04/10 12:00:03;;;;;;;5.20;4.70;;;;;;;13.79;60.57;99419.09;5105167;28;20268;-50
2023/04/10 12:03:04;;;;;;;5.33;4.60;;;;;;;13.49;62.76;99412.59;5106420;28;20195;-46
2023/04/10 12:06:12;;;;;;;4.83;4.33;;;;;;;13.28;63.71;99403.06;5106453;28;20190;-49
2023/04/10 12:09:06;;;;;;;10.23;8.33;;;;;;;13.33;64.20;99399.34;5107795;28;20194;-49
2023/04/10 12:12:08;;;;;;;7.97;5.40;;;;;;;13.43;63.91;99400.66;5106951;28;20780;-49
2023/04/10 12:15:03;;;;;;;7.77;4.43;;;;;;;13.41;63.33;99392.09;5106442;28;20705;-48
2023/04/10 12:20:50;;;;;;;5.10;4.60;;;;;;;13.44;61.90;99391.06;5068815;28;20246;-48
2023/04/10 12:23:21;;;;;;;5.23;4.73;;;;;;;13.58;62.44;99385.28;5069879;28;20261;-48
2023/04/10 12:29:02;;;;;;;4.10;3.80;;;;;;;13.91;59.84;99382.97;5070785;28;20190;-49
2023/04/10 12:31:38;;;;;;;3.97;3.67;;;;;;;13.92;59.10;99376.81;5070570;28;20196;-50
2023/04/10 12:34:09;;;;;;;4.43;3.77;;;;;;;14.02;58.27;99378.94;5066297;28;20315;-49
2023/04/10 12:36:38;;;;;;;4.20;3.80;;;;;;;14.09;58.29;99369.09;5070505;28;20216;-49
2023/04/10 12:39:31;;;;;;;6.00;5.40;;;;;;;14.18;58.41;99366.06;5066004;28;21001;-50
2023/04/10 12:42:18;;;;;;;7.40;4.80;;;;;;;14.43;57.89;99358.84;5069363;28;20196;-50
2023/04/10 12:45:08;;;;;;;6.47;4.70;;;;;;;14.51;56.71;99351.47;5067358;28;20231;-50
2023/04/10 12:48:15;;;;;;;5.50;5.00;;;;;;;14.57;56.54;99363.38;5070369;28;20196;-50
2023/04/10 12:51:11;;;;;;;4.30;4.00;;;;;;;14.68;55.49;99360.25;5070664;28;20222;-53
2023/04/10 12:53:49;;;;;;;4.50;4.10;;;;;;;14.72;54.68;99351.38;5070299;28;20595;-51
2023/04/10 12:56:19;;;;;;;6.33;4.30;;;;;;;14.76;54.93;99340.69;5068302;28;20702;-51
2023/04/10 13:02:23;;;;;;;5.30;4.30;;;;;;;15.05;54.60;99341.03;5066335;28;20238;-50
2023/04/10 13:05:26;;;;;;;4.73;4.33;;;;;;;15.16;53.79;99341.34;5068238;28;20219;-52
2023/04/10 13:07:59;;;;;;;4.60;4.20;;;;;;;15.27;52.83;99332.03;5068029;28;20278;-51
2023/04/10 13:10:53;;;;;;;5.00;4.03;;;;;;;15.29;52.11;99339.78;5069350;28;20328;-49
2023/04/10 13:13:45;;;;;;;3.93;3.63;;;;;;;15.12;52.40;99334.59;5069493;28;20223;-49
2023/04/10 13:16:15;;;;;;;5.50;4.67;;;;;;;14.99;53.15;99323.91;5095533;28;20349;-49
2023/04/10 13:18:50;;;;;;;4.63;3.57;;;;;;;14.89;53.46;99325.28;5108780;28;20644;-49
2023/04/10 13:21:24;;;;;;;4.80;4.40;;;;;;;15.00;53.35;99325.59;5108992;28;20305;-51
2023/04/10 13:23:55;;;;;;;4.50;3.90;;;;;;;15.03;52.79;99314.97;5108244;28;20279;-47
2023/04/10 13:26:32;;;;;;;4.20;3.90;;;;;;;15.20;52.22;99307.13;5110288;28;20263;-50
2023/04/10 13:29:04;;;;;;;4.83;4.40;;;;;;;15.18;51.05;99319.44;5109699;28;20253;-49
2023/04/10 13:31:46;;;;;;;4.67;4.20;;;;;;;15.18;51.08;99318.56;5107343;28;20309;-49
2023/04/10 13:37:19;;;;;;;4.07;3.77;;;;;;;15.20;50.39;99317.59;5108541;28;20195;-50
2023/04/10 13:39:52;;;;;;;5.10;3.77;;;;;;;15.26;50.75;99306.81;5110302;28;20210;-51
2023/04/10 13:46:04;;;;;;;4.37;4.07;;;;;;;15.29;51.66;99302.34;5108821;28;20662;-48
2023/04/10 13:48:59;;;;;;;4.30;3.97;;;;;;;15.24;51.09;99294.72;5109727;28;20277;-48
2023/04/10 13:51:58;;;;;;;7.40;5.27;;;;;;;15.39;51.02;99298.31;5108507;28;20241;-48
2023/04/10 13:55:03;;;;;;;6.70;4.57;;;;;;;15.01;51.55;99288.03;5110765;28;20258;-49
2023/04/10 13:57:31;;;;;;;5.20;4.70;;;;;;;14.93;51.96;99292.81;5106951;28;20202;-48
2023/04/10 14:00:09;;;;;;;6.47;4.63;;;;;;;14.93;52.63;99284.97;5089711;28;20230;-49
2023/04/10 14:03:00;;;;;;;23.00;14.07;;;;;;;14.99;52.27;99284.69;5109771;28;20358;-47
2023/04/10 14:05:45;;;;;;;12.17;9.37;;;;;;;15.02;51.89;99271.44;5107235;28;20231;-48
2023/04/10 14:08:30;;;;;;;8.80;6.07;;;;;;;15.11;52.08;99281.47;5108347;28;20743;-47
2023/04/10 14:11:29;;;;;;;5.03;4.63;;;;;;;15.05;51.53;99283.53;5110016;28;20285;-49
2023/04/10 14:14:41;;;;;;;;;;;;;;;;;;;;;
2023/04/10 14:17:27;;;;;;;6.07;5.40;;;;;;;14.59;52.63;99274.50;5108400;28;20238;-50
2023/04/10 14:20:03;;;;;;;5.07;4.67;;;;;;;14.59;53.15;99277.13;5110130;28;20222;-50
2023/04/10 14:22:46;;;;;;;5.43;4.30;;;;;;;14.55;52.90;99268.59;5110094;28;20289;-50
2023/04/10 14:35:09;;;;;;;7.57;6.77;;;;;;;14.78;52.64;99264.88;5089494;28;20284;-50
2023/04/10 14:37:56;;;;;;;6.33;5.83;;;;;;;14.79;52.36;99262.16;5109820;28;20719;-48
2023/04/10 14:47:59;;;;;;;7.20;5.97;;;;;;;14.50;53.39;99265.38;5108829;28;20198;-50
2023/04/10 14:50:55;;;;;;;7.13;6.53;;;;;;;14.44;53.29;99261.31;5109414;28;20652;-50
2023/04/10 14:53:57;;;;;;;6.40;5.80;;;;;;;14.30;53.69;99258.47;5108722;28;20626;-49
2023/04/10 14:57:03;;;;;;;7.00;6.03;;;;;;;14.31;53.69;99260.16;5109099;28;20230;-50
2023/04/10 15:00:23;;;;;;;;;;;;;;;;;;;;;
2023/04/10 15:06:14;;;;;;;6.67;5.70;;;;;;;14.27;53.78;99262.97;5106740;28;20697;-49
2023/04/10 15:09:22;;;;;;;;;;;;;;;;;;;;;
2023/04/10 15:12:22;;;;;;;4.80;4.40;;;;;;;14.10;54.81;99266.41;5109014;28;20194;-49
2023/04/10 15:16:01;;;;;;;;;;;;;;;;;;;;;
2023/04/10 15:22:34;;;;;;;;;;;;;;;;;;;;;
2023/04/10 15:25:23;;;;;;;4.37;4.00;;;;;;;13.32;57.57;99262.09;5107051;28;20712;-48
2023/04/10 15:31:22;;;;;;;5.23;4.60;;;;;;;13.12;58.64;99258.66;5108831;28;20251;-49
2023/04/10 15:37:37;;;;;;;6.57;5.90;;;;;;;13.00;60.56;99252.22;5103471;28;20643;-48
2023/04/10 15:40:28;;;;;;;5.90;4.90;;;;;;;12.93;62.26;99264.66;5108763;28;20638;-48
2023/04/10 15:43:23;;;;;;;6.10;5.40;;;;;;;12.84;66.04;99259.84;5107406;28;20255;-50
2023/04/10 15:46:21;;;;;;;5.47;4.93;;;;;;;12.72;69.13;99255.16;5109188;28;20187;-49
2023/04/10 15:52:10;;;;;;;8.87;6.37;;;;;;;12.55;73.85;99261.03;5104125;28;20759;-49
2023/04/10 15:55:14;;;;;;;6.17;5.37;;;;;;;12.53;72.51;99264.59;5107595;28;20255;-50
2023/04/10 16:01:20;;;;;;;11.47;8.90;;;;;;;12.46;80.11;99258.81;5107540;28;20667;-49
2023/04/10 16:04:09;;;;;;;8.67;7.37;;;;;;;12.43;78.73;99251.13;5111998;28;20672;-49
2023/04/10 16:10:35;;;;;;;9.07;7.33;;;;;;;12.34;82.60;99247.13;5102635;28;20222;-50
2023/04/10 16:13:15;;;;;;;8.00;7.30;;;;;;;12.29;82.15;99243.88;5110714;28;20729;-50
2023/04/10 16:16:13;;;;;;;10.50;7.87;;;;;;;12.25;83.23;99236.25;5110156;28;20282;-50
2023/04/10 16:18:45;;;;;;;11.83;8.23;;;;;;;12.26;84.16;99224.94;5091608;28;20287;-45
2023/04/10 16:21:33;;;;;;;10.40;8.20;;;;;;;12.30;84.43;99218.72;5109101;28;20256;-46
2023/04/10 16:24:29;;;;;;;8.67;7.90;;;;;;;12.43;83.49;99217.28;5110461;28;20218;-49
2023/04/10 16:27:07;;;;;;;10.77;7.90;;;;;;;12.45;82.77;99219.81;5090385;28;20299;-47
2023/04/10 16:30:17;;;;;;;9.20;7.90;;;;;;;12.39;82.24;99225.28;5091273;28;20219;-45
2023/04/10 16:33:01;;;;;;;12.03;8.63;;;;;;;12.38;82.01;99231.41;5110598;28;20198;-45
2023/04/10 16:36:07;;;;;;;16.73;11.00;;;;;;;12.38;82.52;99227.03;5111272;28;20280;-45
2023/04/10 16:39:06;;;;;;;18.87;11.40;;;;;;;12.34;82.01;99226.31;5108439;28;20291;-49
2023/04/10 16:41:38;;;;;;;23.43;13.37;;;;;;;12.31;82.46;99223.81;5106808;28;20752;-50
2023/04/10 16:44:08;;;;;;;17.97;12.93;;;;;;;12.34;81.25;99228.91;5103384;28;20218;-49
2023/04/10 16:46:44;;;;;;;16.00;11.37;;;;;;;12.34;79.95;99230.66;5090740;28;20227;-51
2023/04/10 16:49:31;;;;;;;17.97;11.97;;;;;;;12.35;78.97;99230.63;5090886;28;20321;-45
2023/04/10 16:52:09;;;;;;;22.73;13.70;;;;;;;12.38;78.96;99227.03;5089326;28;20664;-49
2023/04/10 16:55:00;;;;;;;19.43;13.30;;;;;;;12.36;79.13;99229.72;5090286;28;20222;-50
2023/04/10 16:57:44;;;;;;;22.90;15.00;;;;;;;12.28;79.86;99229.19;5086164;28;20659;-49
2023/04/10 17:00:14;;;;;;;22.90;15.20;;;;;;;12.37;79.54;99222.75;5089045;28;20707;-49
2023/04/10 17:03:12;;;;;;;18.33;13.23;;;;;;;12.36;80.20;99211.50;5091004;28;20222;-49
2023/04/10 17:06:01;;;;;;;15.73;11.80;;;;;;;12.34;80.58;99213.31;5091107;28;20614;-51
2023/04/10 17:08:55;;;;;;;22.93;12.03;;;;;;;12.41;80.44;99219.13;5106417;28;20234;-50
2023/04/10 17:11:41;;;;;;;16.67;12.40;;;;;;;12.40;80.52;99213.97;5111763;28;20224;-49
2023/04/10 17:14:21;;;;;;;18.07;12.57;;;;;;;12.38;80.13;99218.41;5111658;28;20664;-47
2023/04/10 17:17:00;;;;;;;12.57;10.00;;;;;;;12.55;79.23;99235.00;5111153;28;20244;-50
2023/04/10 17:19:32;;;;;;;13.23;10.53;;;;;;;12.50;78.48;99252.56;5110281;28;20279;-52
2023/04/10 17:22:19;;;;;;;17.77;13.27;;;;;;;12.48;77.98;99267.41;5109790;28;20504;-58
2023/04/10 17:24:48;;;;;;;19.13;13.40;;;;;;;12.33;80.50;99287.06;5111327;28;20206;-57